.
WxDataArchive / Data Records for 2012-05-25
2012-05-24 May 2012 2012-05-26

Data Records for Friday, 25 May 2012

Time	Temp	Chill	HIndex	Humid	Dewpt	 Wind 	HiWind	WindDir	Rain 	Barom 
-----	----	-----	------	-----	-----	------	------	-------	-----	----- 
00:00	75.1	75.1	77.7	47	53.5	0	1	158	0.00	29.794 
00:05	75.1	75.1	77.7	47	53.5	1	3	112	0.00	29.794 
00:10	74.9	74.9	74.9	47	53.3	0	1	112	0.00	29.794 
00:15	74.7	74.7	74.7	48	53.7	0	3	112	0.00	29.794 
00:20	74.7	74.7	74.7	48	53.7	1	5	90	0.00	29.794 
00:25	74.7	74.7	74.7	48	53.7	0	2	90	0.00	29.794 
00:30	74.6	74.6	74.6	48	53.6	1	3	45	0.00	29.799 
00:35	74.6	74.6	74.6	48	53.6	0	3	45	0.00	29.799 
00:40	74.4	74.4	74.4	49	54.0	1	3	270	0.00	29.799 
00:45	74.4	74.4	74.4	49	54.0	1	3	270	0.00	29.803 
00:50	74.4	74.4	74.4	49	54.0	1	3	68	0.00	29.803 
00:55	74.4	74.4	74.4	50	54.5	0	1	338	0.00	29.803 
01:00	74.2	74.2	74.2	50	54.3	0	1	338	0.00	29.806 
01:05	74.2	74.2	74.2	50	54.3	0	2	45	0.00	29.806 
01:10	74.0	74.0	74.0	50	54.2	0	3	45	0.00	29.806 
01:15	73.9	73.9	73.9	50	54.1	1	3	112	0.00	29.807 
01:20	73.9	73.9	73.9	50	54.1	0	2	112	0.00	29.807 
01:25	73.9	73.9	73.9	51	54.6	0	4	90	0.00	29.807 
01:30	73.9	73.9	73.9	51	54.6	0	2	90	0.00	29.804 
01:35	73.9	73.9	73.9	51	54.6	0	3	90	0.00	29.804 
01:40	73.9	73.9	73.9	51	54.6	1	3	90	0.00	29.804 
01:45	73.9	73.9	73.9	51	54.6	1	4	0	0.00	29.810 
01:50	73.9	73.9	73.9	51	54.6	1	4	112	0.00	29.810 
01:55	73.9	73.9	73.9	51	54.6	0	3	90	0.00	29.810 
02:00	73.9	73.9	73.9	50	54.1	1	5	90	0.00	29.814 
02:05	73.9	73.9	73.9	50	54.1	1	5	112	0.00	29.814 
02:10	73.9	73.9	73.9	50	54.1	0	2	112	0.00	29.814 
02:15	73.9	73.9	73.9	50	54.1	0	2	112	0.00	29.809 
02:20	73.9	73.9	73.9	50	54.1	1	3	112	0.00	29.809 
02:25	73.9	73.9	73.9	50	54.1	1	4	135	0.00	29.809 
02:30	73.9	73.9	73.9	50	54.1	1	5	90	0.00	29.800 
02:35	73.9	73.9	73.9	50	54.1	1	4	90	0.00	29.800 
02:40	73.9	73.9	73.9	50	54.1	0	2	112	0.00	29.800 
02:45	73.7	73.7	73.7	50	53.9	1	6	90	0.00	29.798 
02:50	73.7	73.7	73.7	50	53.9	1	3	90	0.00	29.798 
02:55	73.5	73.5	73.5	50	53.7	1	4	90	0.00	29.798 
03:00	73.5	73.5	73.5	50	53.7	1	3	45	0.00	29.798 
03:05	73.5	73.5	73.5	50	53.7	1	4	68	0.00	29.798 
03:10	73.5	73.5	73.5	50	53.7	1	4	90	0.00	29.798 
03:15	73.5	73.5	73.5	50	53.7	1	5	112	0.00	29.800 
03:20	73.5	73.5	73.5	50	53.7	1	4	292	0.00	29.800 
03:25	73.5	73.5	73.5	50	53.7	0	2	112	0.00	29.800 
03:30	73.5	73.5	73.5	50	53.7	1	3	248	0.00	29.799 
03:35	73.5	73.5	73.5	50	53.7	1	3	292	0.00	29.799 
03:40	73.5	73.5	73.5	50	53.7	1	4	292	0.00	29.799 
03:45	73.3	73.3	73.3	50	53.5	1	4	68	0.00	29.802 
03:50	73.3	73.3	73.3	51	54.1	0	3	0	0.00	29.802 
03:55	73.3	73.3	73.3	51	54.1	0	2	0	0.00	29.802 
04:00	73.2	73.2	73.2	51	54.0	0	3	248	0.00	29.809 
04:05	73.2	73.2	73.2	51	54.0	0	1	248	0.00	29.809 
04:10	73.0	73.0	73.0	51	53.8	0	4	270	0.00	29.809 
04:15	73.0	73.0	73.0	52	54.3	0	2	270	0.00	29.811 
04:20	72.8	72.8	72.8	52	54.1	0	2	270	0.00	29.811 
04:25	72.7	72.7	72.7	53	54.6	0	2	270	0.00	29.811 
04:30	72.5	72.5	72.5	53	54.4	0	1	270	0.00	29.814 
04:35	72.5	72.5	72.5	53	54.4	0	1	270	0.00	29.814 
04:40	72.5	72.5	72.5	54	54.9	0	1	270	0.00	29.814 
04:45	72.3	72.3	72.3	54	54.7	0	1	270	0.00	29.817 
04:50	72.5	72.5	72.5	54	54.9	0	3	270	0.00	29.817 
04:55	72.5	72.5	72.5	54	54.9	0	1	270	0.00	29.817 
05:00	72.7	72.7	72.7	54	55.1	0	3	270	0.00	29.816 
05:05	72.8	72.8	72.8	54	55.2	0	2	270	0.00	29.816 
05:10	73.0	73.0	73.0	54	55.4	0	1	270	0.00	29.816 
05:15	73.0	73.0	73.0	54	55.4	0	3	270	0.00	29.816 
05:20	73.0	73.0	73.0	54	55.4	0	1	270	0.00	29.816 
05:25	73.0	73.0	73.0	54	55.4	0	2	270	0.00	29.816 
05:30	73.0	73.0	73.0	54	55.4	0	1	270	0.00	29.818 
05:35	73.0	73.0	73.0	54	55.4	0	2	270	0.00	29.818 
05:40	73.0	73.0	73.0	55	55.9	1	3	270	0.00	29.818 
05:45	73.2	73.2	73.2	55	56.0	0	2	270	0.00	29.823 
05:50	73.2	73.2	73.2	55	56.0	0	2	270	0.00	29.823 
05:55	73.2	73.2	73.2	55	56.0	0	3	270	0.00	29.823 
06:00	73.3	73.3	73.3	55	56.1	0	2	270	0.00	29.827 
06:05	73.3	73.3	73.3	55	56.1	0	2	270	0.00	29.827 
06:10	73.3	73.3	73.3	55	56.1	0	2	270	0.00	29.827 
06:15	73.5	73.5	73.5	55	56.3	0	2	270	0.00	29.830 
06:20	73.5	73.5	73.5	56	56.8	0	2	270	0.00	29.830 
06:25	73.5	73.5	73.5	56	56.8	0	2	270	0.00	29.830 
06:30	73.3	73.3	73.3	56	56.6	0	2	270	0.00	29.831 
06:35	73.3	73.3	73.3	57	57.1	0	2	270	0.00	29.831 
06:40	73.3	73.3	73.3	57	57.1	0	2	270	0.00	29.831 
06:45	73.3	73.3	73.3	57	57.1	0	1	270	0.00	29.835 
06:50	73.2	73.2	73.2	58	57.5	0	1	270	0.00	29.835 
06:55	73.2	73.2	73.2	58	57.5	0	2	270	0.00	29.835 
07:00	73.2	73.2	73.2	58	57.5	0	2	270	0.00	29.841 
07:05	73.2	73.2	73.2	59	58.0	0	1	270	0.00	29.841 
07:10	73.3	73.3	73.3	59	58.1	0	2	270	0.00	29.841 
07:15	73.5	73.5	73.5	59	58.3	0	2	270	0.00	29.847 
07:20	73.5	73.5	73.5	60	58.7	0	1	270	0.00	29.847 
07:25	73.7	73.7	73.7	60	58.9	0	1	270	0.00	29.847 
07:30	73.9	73.9	73.9	60	59.1	0	2	270	0.00	29.851 
07:35	74.0	74.0	74.0	61	59.7	0	2	270	0.00	29.851 
07:40	74.2	74.2	74.2	61	59.9	0	2	270	0.00	29.851 
07:45	74.6	74.6	74.6	61	60.2	0	2	270	0.00	29.857 
07:50	74.7	74.7	74.7	61	60.3	0	3	270	0.00	29.857 
07:55	75.1	75.1	77.4	61	60.7	1	4	270	0.00	29.857 
08:00	75.4	75.4	77.6	61	61.0	1	3	270	0.00	29.862 
08:05	75.8	75.8	77.8	61	61.4	1	4	270	0.00	29.862 
08:10	76.3	76.3	78.2	61	61.8	1	3	270	0.00	29.862 
08:15	76.3	76.3	78.2	60	61.4	1	2	270	0.00	29.874 
08:20	76.5	76.5	78.4	60	61.6	1	5	270	0.00	29.874 
08:25	76.5	76.5	78.4	60	61.6	1	4	248	0.00	29.874 
08:30	76.7	76.7	78.5	60	61.7	1	4	248	0.00	29.880 
08:35	76.8	76.8	78.6	59	61.4	1	3	248	0.00	29.880 
08:40	77.2	77.2	78.9	59	61.7	1	4	270	0.00	29.880 
08:45	77.6	77.6	79.3	59	62.1	2	4	248	0.00	29.890 
08:50	77.9	77.9	79.5	58	61.9	2	5	248	0.00	29.890 
08:55	77.9	77.9	79.5	58	61.9	2	5	248	0.00	29.890 
09:00	78.1	78.1	79.7	58	62.1	1	4	248	0.00	29.894 
09:05	78.5	78.5	80.0	58	62.5	2	4	270	0.00	29.894 
09:10	78.8	78.8	80.3	57	62.3	2	5	270	0.00	29.894 
09:15	79.2	79.2	80.6	56	62.1	2	5	248	0.00	29.897 
09:20	79.2	79.2	80.7	57	62.6	3	9	270	0.00	29.897 
09:25	79.4	79.4	80.9	57	62.8	2	5	270	0.00	29.897 
09:30	79.2	79.2	80.6	56	62.1	2	6	270	0.00	29.901 
09:35	78.8	78.8	80.2	56	61.8	4	7	270	0.00	29.901 
09:40	78.8	78.8	80.3	57	62.3	2	6	270	0.00	29.901 
09:45	79.2	79.2	80.6	56	62.1	2	6	270	0.00	29.902 
09:50	79.2	79.2	80.7	57	62.6	2	5	270	0.00	29.902 
09:55	79.6	79.6	81.0	56	62.5	2	5	270	0.00	29.902 
10:00	79.9	79.9	81.2	55	62.3	2	5	270	0.00	29.908 
10:05	80.1	80.1	81.4	55	62.4	2	4	248	0.00	29.908 
10:10	80.1	80.1	81.4	55	62.4	2	6	270	0.00	29.908 
10:15	80.3	80.3	81.6	55	62.6	2	4	270	0.00	29.910 
10:20	80.7	80.7	81.9	54	62.5	2	5	270	0.00	29.910 
10:25	81.2	81.2	82.3	53	62.4	2	5	270	0.00	29.910 
10:30	81.6	81.6	82.9	54	63.3	1	4	270	0.00	29.908 
10:35	81.8	81.8	83.0	53	63.0	2	5	270	0.00	29.908 
10:40	81.8	81.8	82.8	52	62.4	2	5	270	0.00	29.908 
10:45	81.8	81.8	83.0	53	63.0	1	4	270	0.00	29.911 
10:50	81.8	81.8	82.8	52	62.4	2	6	270	0.00	29.911 
10:55	82.2	82.2	83.1	51	62.2	2	4	270	0.00	29.911 
11:00	82.2	82.2	83.1	51	62.2	2	5	270	0.00	29.915 
11:05	82.6	82.6	83.4	50	62.0	2	6	270	0.00	29.915 
11:10	82.8	82.8	83.7	50	62.2	2	6	270	0.00	29.915 
11:15	83.4	83.4	84.4	50	62.8	3	7	270	0.00	29.918 
11:20	83.6	83.6	84.8	51	63.5	2	4	292	0.00	29.918 
11:25	84.1	84.1	84.8	48	62.3	2	4	248	0.00	29.918 
11:30	84.3	84.3	85.1	48	62.4	3	6	248	0.00	29.924 
11:35	84.0	84.0	84.9	49	62.8	2	4	270	0.00	29.924 
11:40	84.0	84.0	85.1	50	63.3	2	5	292	0.00	29.924 
11:45	84.1	84.1	85.5	51	64.0	2	4	270	0.00	29.925 
11:50	84.5	84.5	85.6	49	63.2	2	6	270	0.00	29.925 
11:55	84.1	84.1	85.0	49	62.8	3	5	270	0.00	29.925 
12:00	84.1	84.1	85.0	49	62.8	2	5	270	0.00	29.930 
12:05	84.3	84.3	85.3	49	63.0	2	5	270	0.00	29.930 
12:10	84.7	84.7	85.8	49	63.4	2	6	270	0.00	29.930 
12:15	84.7	84.7	85.6	48	62.8	2	5	270	0.00	29.938 
12:20	84.9	84.9	85.8	48	63.0	1	4	270	0.00	29.938 
12:25	85.3	85.3	86.6	49	63.9	3	5	270	0.00	29.938 
12:30	85.3	85.3	86.1	47	62.8	2	6	270	0.00	29.939 
12:35	85.7	85.7	86.9	48	63.7	1	4	270	0.00	29.939 
12:40	85.5	85.5	86.4	47	62.9	3	6	270	0.00	29.939 
12:45	85.7	85.7	86.9	48	63.7	1	3	270	0.00	29.937 
12:50	85.7	85.7	86.4	46	62.5	1	4	270	0.00	29.937 
12:55	85.7	85.7	86.9	48	63.7	2	4	270	0.00	29.937 
13:00	86.1	86.1	87.2	47	63.5	2	5	270	0.00	29.938 
13:05	86.3	86.3	87.5	47	63.7	1	4	270	0.00	29.938 
13:10	86.7	86.7	87.8	46	63.4	2	5	270	0.00	29.938 
13:15	87.0	87.0	88.2	46	63.7	2	4	292	0.00	29.939 
13:20	87.2	87.2	88.5	46	63.9	1	4	292	0.00	29.939 
13:25	87.6	87.6	88.8	45	63.6	1	4	292	0.00	29.939 
13:30	88.0	88.0	89.4	45	64.0	2	6	292	0.00	29.939 
13:35	87.6	87.6	88.2	43	62.3	3	5	270	0.00	29.939 
13:40	87.4	87.4	88.5	45	63.4	2	4	315	0.00	29.939 
13:45	87.4	87.4	88.8	46	64.0	1	5	292	0.00	29.941 
13:50	87.6	87.6	88.2	43	62.3	2	5	292	0.00	29.941 
13:55	88.0	88.0	88.7	43	62.7	2	4	292	0.00	29.941 
14:00	88.2	88.2	88.7	42	62.2	2	4	248	0.00	29.941 
14:05	88.4	88.4	88.7	41	61.7	2	5	248	0.00	29.941 
14:10	88.2	88.2	88.7	42	62.2	2	5	248	0.00	29.941 
14:15	88.2	88.2	88.7	42	62.2	1	7	270	0.00	29.939 
14:20	88.6	88.6	89.0	41	61.8	2	4	270	0.00	29.939 
14:25	88.4	88.4	88.4	40	61.0	3	6	270	0.00	29.939 
14:30	88.4	88.4	87.9	38	59.5	1	5	270	0.00	29.940 
14:35	88.4	88.4	87.9	38	59.5	2	5	270	0.00	29.940 
14:40	88.4	88.4	87.9	38	59.5	2	5	270	0.00	29.940 
14:45	88.4	88.4	87.6	37	58.8	1	4	270	0.00	29.940 
14:50	88.6	88.6	88.2	38	59.7	2	3	338	0.00	29.940 
14:55	88.6	88.6	88.2	38	59.7	3	5	270	0.00	29.940 
15:00	88.6	88.6	87.6	36	58.2	1	3	292	0.00	29.939 
15:05	88.8	88.8	87.6	35	57.6	3	6	292	0.00	29.939 
15:10	88.8	88.8	87.6	35	57.6	2	5	270	0.00	29.939 
15:15	89.0	89.0	87.7	34	56.9	1	5	270	0.00	29.945 
15:20	89.5	89.5	88.3	34	57.4	1	5	270	0.00	29.945 
15:25	89.3	89.3	87.8	33	56.4	2	4	315	0.00	29.945 
15:30	89.3	89.3	87.8	33	56.4	2	5	315	0.00	29.950 
15:35	89.0	89.0	87.2	32	55.3	2	4	292	0.00	29.950 
15:40	89.0	89.0	87.0	31	54.4	2	4	315	0.00	29.950 
15:45	89.3	89.3	87.6	32	55.5	2	5	315	0.00	29.947 
15:50	89.5	89.5	87.6	31	54.8	3	5	270	0.00	29.947 
15:55	89.0	89.0	86.8	30	53.5	1	2	338	0.00	29.947 
16:00	89.5	89.5	87.4	30	53.9	2	5	292	0.00	29.952 
16:05	89.7	89.7	87.8	31	55.0	1	3	292	0.00	29.952 
16:10	89.9	89.9	87.4	28	52.4	2	6	270	0.00	29.952 
16:15	89.5	89.5	87.4	30	53.9	2	4	315	0.00	29.954 
16:20	89.5	89.5	87.0	28	52.0	1	3	315	0.00	29.954 
16:25	89.5	89.5	86.8	27	51.1	1	3	315	0.00	29.954 
16:30	89.5	89.5	86.8	27	51.1	2	5	315	0.00	29.954 
16:35	89.3	89.3	86.6	27	50.9	1	3	315	0.00	29.954 
16:40	89.3	89.3	86.9	29	52.8	1	3	315	0.00	29.954 
16:45	89.3	89.3	86.8	28	51.9	1	3	292	0.00	29.952 
16:50	89.5	89.5	87.0	28	52.0	2	4	292	0.00	29.952 
16:55	89.3	89.3	86.6	27	50.9	1	3	315	0.00	29.952 
17:00	89.0	89.0	86.3	27	50.6	1	5	292	0.00	29.949 
17:05	89.3	89.3	86.6	27	50.9	1	2	292	0.00	29.949 
17:10	89.5	89.5	87.0	28	52.0	1	5	292	0.00	29.949 
17:15	89.0	89.0	86.3	27	50.6	2	4	292	0.00	29.950 
17:20	88.8	88.8	86.1	27	50.5	1	3	292	0.00	29.950 
17:25	88.8	88.8	86.1	27	50.5	1	4	292	0.00	29.950 
17:30	88.6	88.6	85.7	26	49.3	1	3	292	0.00	29.948 
17:35	88.8	88.8	86.1	27	50.5	1	3	315	0.00	29.948 
17:40	88.8	88.8	86.1	27	50.5	1	3	315	0.00	29.948 
17:45	88.4	88.4	85.7	27	50.1	1	5	292	0.00	29.950 
17:50	88.2	88.2	85.6	28	50.9	1	3	315	0.00	29.950 
17:55	88.2	88.2	85.6	28	50.9	1	4	292	0.00	29.950 
18:00	88.0	88.0	85.4	28	50.8	2	4	270	0.00	29.957 
18:05	87.8	87.8	85.2	28	50.6	1	4	270	0.00	29.957 
18:10	87.4	87.4	84.8	28	50.3	1	4	270	0.00	29.957 
18:15	87.2	87.2	84.6	28	50.1	1	4	292	0.00	29.959 
18:20	87.2	87.2	84.8	29	51.0	0	2	292	0.00	29.959 
18:25	87.0	87.0	84.7	30	51.8	1	3	315	0.00	29.959 
18:30	86.5	86.5	84.1	29	50.4	1	3	292	0.00	29.959 
18:35	86.5	86.5	84.2	30	51.3	0	3	292	0.00	29.959 
18:40	86.1	86.1	83.7	29	50.1	1	3	292	0.00	29.959 
18:45	85.9	85.9	83.8	31	51.7	0	2	292	0.00	29.961 
18:50	85.7	85.7	83.6	31	51.5	1	4	292	0.00	29.961 
18:55	85.3	85.3	83.2	31	51.2	1	4	292	0.00	29.961 
19:00	85.1	85.1	83.2	32	51.9	0	2	315	0.00	29.963 
19:05	84.9	84.9	83.0	32	51.7	1	3	338	0.00	29.963 
19:10	84.7	84.7	82.7	31	50.7	0	2	338	0.00	29.963 
19:15	84.7	84.7	82.8	32	51.5	0	2	338	0.00	29.958 
19:20	84.5	84.5	82.5	31	50.5	1	3	315	0.00	29.958 
19:25	84.3	84.3	82.4	31	50.3	0	2	315	0.00	29.958 
19:30	84.0	84.0	82.1	31	50.1	1	2	315	0.00	29.961 
19:35	83.8	83.8	81.9	31	49.9	1	4	292	0.00	29.961 
19:40	83.6	83.6	81.8	31	49.7	0	2	292	0.00	29.961 
19:45	83.4	83.4	81.7	32	50.4	0	2	292	0.00	29.971 
19:50	83.2	83.2	81.6	32	50.2	0	2	292	0.00	29.971 
19:55	82.8	82.8	81.2	32	49.9	1	2	292	0.00	29.971 
20:00	82.4	82.4	80.9	32	49.5	0	1	292	0.00	29.971 
20:05	82.2	82.2	80.9	33	50.2	0	1	292	0.00	29.971 
20:10	81.8	81.8	80.7	34	50.7	0	1	292	0.00	29.971 
20:15	81.6	81.6	80.5	33	49.7	0	2	292	0.00	29.974 
20:20	81.2	81.2	80.3	34	50.1	0	1	292	0.00	29.974 
20:25	81.1	81.1	80.2	34	50.0	0	2	292	0.00	29.974 
20:30	80.7	80.7	80.0	35	50.5	0	2	292	0.00	29.981 
20:35	80.3	80.3	79.7	35	50.1	0	1	292	0.00	29.981 
20:40	79.9	79.9	79.5	35	49.8	0	1	292	0.00	29.981 
20:45	79.8	79.8	79.4	35	49.7	0	1	292	0.00	29.992 
20:50	79.6	79.6	79.2	34	48.7	0	1	292	0.00	29.992 
20:55	79.4	79.4	79.1	34	48.6	0	1	292	0.00	29.992 
21:00	79.4	79.4	79.0	32	46.9	0	2	292	0.00	30.006 
21:05	79.4	79.4	79.0	32	46.9	0	1	292	0.00	30.006 
21:10	79.2	79.2	78.8	31	45.9	0	1	292	0.00	30.006 
21:15	79.0	79.0	78.8	32	46.6	0	1	292	0.00	30.003 
21:20	78.6	78.6	78.5	32	46.3	0	1	292	0.00	30.003 
21:25	78.3	78.3	78.5	33	46.8	0	1	292	0.00	30.003 
21:30	77.7	77.7	78.2	33	46.3	0	2	292	0.00	30.003 
21:35	77.4	77.4	78.1	34	46.8	0	0	---	0.00	30.003 
21:40	77.2	77.2	77.9	33	45.8	0	0	---	0.00	30.003 
21:45	76.7	76.7	77.9	35	47.0	0	0	---	0.00	30.009 
21:50	76.3	76.3	77.7	35	46.6	0	0	---	0.00	30.009 
21:55	76.1	76.1	77.6	35	46.4	0	0	---	0.00	30.009 
22:00	75.8	75.8	77.6	37	47.7	0	0	---	0.00	30.023 
22:05	75.4	75.4	77.5	37	47.3	0	0	---	0.00	30.023 
22:10	75.1	75.1	77.4	37	47.0	0	0	---	0.00	30.023 
22:15	74.9	74.9	74.9	38	47.6	0	0	---	0.00	30.024 
22:20	74.6	74.6	74.6	38	47.3	0	0	---	0.00	30.024 
22:25	74.2	74.2	74.2	40	48.3	0	1	292	0.00	30.024 
22:30	73.9	73.9	73.9	40	48.0	0	1	292	0.00	30.036 
22:35	73.7	73.7	73.7	42	49.2	0	0	---	0.00	30.036 
22:40	73.2	73.2	73.2	43	49.3	0	0	---	0.00	30.036 
22:45	72.8	72.8	72.8	43	49.0	0	0	---	0.00	30.039 
22:50	72.5	72.5	72.5	43	48.7	0	0	---	0.00	30.039 
22:55	72.1	72.1	72.1	44	49.0	0	0	---	0.00	30.039 
23:00	72.0	72.0	72.0	45	49.5	0	1	292	0.00	30.047 
23:05	71.6	71.6	71.6	45	49.1	0	0	---	0.00	30.047 
23:10	71.3	71.3	71.3	46	49.4	0	0	---	0.00	30.047 
23:15	70.9	70.9	70.9	47	49.7	0	0	---	0.00	30.058 
23:20	70.6	70.6	70.6	48	49.9	0	0	---	0.00	30.058 
23:25	70.4	70.4	70.4	48	49.8	0	0	---	0.00	30.058 
23:30	70.1	70.1	70.1	49	50.0	0	0	---	0.00	30.060 
23:35	69.9	69.9	69.9	49	49.9	0	0	---	0.00	30.060 
23:40	69.6	69.6	69.6	50	50.1	0	0	---	0.00	30.060 
23:45	69.4	69.4	69.4	50	49.9	0	0	---	0.00	30.068 
23:50	69.3	69.3	69.3	50	49.8	0	0	---	0.00	30.068 
23:55	69.3	69.3	69.3	51	50.4	0	0	---	0.00	30.068 

CoCoRaHS
IN-AL-39
A2 Web Hosting
Creative Commons License
GoDaddy
search engine by freefind advanced

loaded 2018-11-14 04:33:20 • last modified 2010-11-18 10:43:29
Privacy PolicyDisclaimer
• wx.awcolley.com is powered by PmWiki v.2002016 •
• all content (unless otherwise noted) © 2018 A W Colley